Time;durP1;ratioP1;P1;durP2;ratioP2;P2;SDS_P1;SDS_P2;PMS_P1;PMS_P2;Temp;Humidity;BMP_temperature;BMP_pressure;BME280_temperature;BME280_humidity;BME280_pressure;Samples;Min_cycle;Max_cycle;Signal;HPM_P1;HPM_P2
2023/04/27 00:00:54;;;;;;;12.37;7.93;;;3.20;99.90;;;;;;5042980;28;37338;-76
2023/04/27 00:03:21;;;;;;;10.97;7.23;;;3.20;99.90;;;;;;5044366;28;38944;-76
2023/04/27 00:05:54;;;;;;;13.90;8.33;;;3.10;99.90;;;;;;5034616;28;37339;-75
2023/04/27 00:08:20;;;;;;;14.50;8.30;;;3.10;99.90;;;;;;5039611;28;39547;-76
2023/04/27 00:10:47;;;;;;;12.60;8.47;;;3.10;99.90;;;;;;5042659;28;37129;-75
2023/04/27 00:13:13;;;;;;;11.47;7.60;;;3.00;99.90;;;;;;5046114;28;38630;-75
2023/04/27 00:15:39;;;;;;;14.63;7.90;;;3.00;99.90;;;;;;5062908;28;36064;-75
2023/04/27 00:18:05;;;;;;;11.60;7.93;;;3.00;99.90;;;;;;5042246;28;39040;-75
2023/04/27 00:20:32;;;;;;;14.27;8.67;;;3.00;99.90;;;;;;5049199;28;37202;-75
2023/04/27 00:22:58;;;;;;;11.17;7.87;;;2.90;99.90;;;;;;5040969;28;38473;-75
2023/04/27 00:25:24;;;;;;;14.60;7.90;;;2.80;99.90;;;;;;5039341;28;37284;-76
2023/04/27 00:27:51;;;;;;;12.73;8.10;;;2.80;99.90;;;;;;5043917;28;39282;-75
2023/04/27 00:30:17;;;;;;;13.70;8.13;;;2.80;99.90;;;;;;5043424;28;38522;-76
2023/04/27 00:32:43;;;;;;;12.70;7.67;;;2.80;99.90;;;;;;5042084;28;39785;-76
2023/04/27 00:35:09;;;;;;;12.37;7.80;;;2.70;99.90;;;;;;5040943;28;37287;-75
2023/04/27 00:37:35;;;;;;;14.20;8.77;;;2.70;99.90;;;;;;5041879;28;39899;-75
2023/04/27 00:40:06;;;;;;;10.20;7.87;;;2.70;99.90;;;;;;5044675;28;38334;-75
2023/04/27 00:42:33;;;;;;;12.53;8.07;;;2.70;99.90;;;;;;5043898;28;47407;-75
2023/04/27 00:45:00;;;;;;;15.97;8.67;;;2.60;99.90;;;;;;5044066;28;35670;-76
2023/04/27 00:47:27;;;;;;;13.00;7.70;;;2.70;99.90;;;;;;5046545;28;36434;-75
2023/04/27 00:49:54;;;;;;;9.80;7.73;;;2.60;99.90;;;;;;5047626;28;38866;-75
2023/04/27 00:52:21;;;;;;;15.10;9.47;;;2.60;99.90;;;;;;5032380;28;37735;-75
2023/04/27 00:54:51;;;;;;;14.97;8.87;;;2.60;99.90;;;;;;5037919;28;37140;-74
2023/04/27 00:57:17;;;;;;;11.83;8.63;;;2.60;99.90;;;;;;5042247;28;38393;-75
2023/04/27 00:59:43;;;;;;;14.97;8.90;;;2.60;99.90;;;;;;5040668;28;37364;-76
2023/04/27 01:02:11;;;;;;;15.10;8.63;;;2.60;99.90;;;;;;5400689;22;37772;-77
2023/04/27 01:04:37;;;;;;;13.63;9.30;;;2.50;99.90;;;;;;5018977;28;38063;-77
2023/04/27 01:07:03;;;;;;;14.13;8.43;;;2.50;99.90;;;;;;5025547;28;37681;-78
2023/04/27 01:09:29;;;;;;;13.53;9.37;;;2.50;99.90;;;;;;5027204;28;41860;-77
2023/04/27 01:11:57;;;;;;;12.27;8.87;;;2.50;99.90;;;;;;5043597;28;36689;-77
2023/04/27 01:14:26;;;;;;;13.67;8.80;;;2.40;99.90;;;;;;5027974;28;36250;-77
2023/04/27 01:16:52;;;;;;;13.43;8.77;;;2.40;99.90;;;;;;5028639;28;38860;-78
2023/04/27 01:19:18;;;;;;;17.07;8.87;;;2.40;99.90;;;;;;5027304;28;37209;-77
2023/04/27 01:21:44;;;;;;;16.30;9.97;;;2.40;99.90;;;;;;5027696;28;38236;-77
2023/04/27 01:24:11;;;;;;;18.27;10.27;;;2.30;99.90;;;;;;5026546;28;36042;-77
2023/04/27 01:26:37;;;;;;;15.83;9.40;;;2.30;99.90;;;;;;5029620;28;39228;-77
2023/04/27 01:29:03;;;;;;;15.67;8.27;;;2.30;99.90;;;;;;5028903;28;37628;-77
2023/04/27 01:31:30;;;;;;;13.90;9.37;;;2.30;99.90;;;;;;5032063;28;36952;-77
2023/04/27 01:33:56;;;;;;;16.70;9.60;;;2.30;99.90;;;;;;5027753;28;36689;-77
2023/04/27 01:36:22;;;;;;;13.50;9.83;;;2.30;99.90;;;;;;5030038;28;38847;-77
2023/04/27 01:38:48;;;;;;;14.67;9.80;;;2.30;99.90;;;;;;5028303;28;40241;-77
2023/04/27 01:41:14;;;;;;;16.10;10.03;;;2.30;99.90;;;;;;5027642;28;36215;-77
2023/04/27 01:43:42;;;;;;;16.77;9.60;;;2.30;99.90;;;;;;5026996;28;37270;-77
2023/04/27 01:46:11;;;;;;;15.53;9.93;;;2.20;99.90;;;;;;5045099;28;38357;-77
2023/04/27 01:48:38;;;;;;;17.20;10.17;;;2.20;99.90;;;;;;5037697;28;37479;-77
2023/04/27 01:51:04;;;;;;;15.57;10.07;;;2.20;99.90;;;;;;5033456;28;37905;-77
2023/04/27 01:53:30;;;;;;;14.77;8.37;;;2.20;99.90;;;;;;5034304;28;38123;-77
2023/04/27 01:55:58;;;;;;;15.90;9.57;;;2.10;99.90;;;;;;5037388;28;37598;-77
2023/04/27 01:58:25;;;;;;;16.33;10.00;;;2.10;99.90;;;;;;5030751;28;37112;-78
2023/04/27 02:00:51;;;;;;;16.17;9.10;;;2.10;99.90;;;;;;5030915;28;38852;-78
2023/04/27 02:03:17;;;;;;;15.77;9.63;;;2.10;99.90;;;;;;5030196;28;36639;-77
2023/04/27 02:05:43;;;;;;;13.00;9.13;;;2.00;99.90;;;;;;5026868;28;38570;-77
2023/04/27 02:08:09;;;;;;;14.23;9.30;;;2.00;99.90;;;;;;5029723;28;37705;-78
2023/04/27 02:10:36;;;;;;;18.00;10.33;;;2.10;99.90;;;;;;5031450;28;38040;-77
2023/04/27 02:13:02;;;;;;;15.67;10.20;;;2.00;99.90;;;;;;5033614;28;38329;-78
2023/04/27 02:15:28;;;;;;;14.03;10.07;;;1.90;99.90;;;;;;5030209;28;37429;-78
2023/04/27 02:17:54;;;;;;;15.87;10.40;;;2.00;99.90;;;;;;5047088;28;37022;-78
2023/04/27 02:20:20;;;;;;;16.73;10.03;;;1.90;99.90;;;;;;5036050;28;36832;-78
2023/04/27 02:22:47;;;;;;;14.63;9.83;;;1.90;99.90;;;;;;5052526;28;36381;-78
2023/04/27 02:25:13;;;;;;;14.20;9.40;;;1.90;99.90;;;;;;5035255;28;39214;-78
2023/04/27 02:27:40;;;;;;;14.23;9.47;;;1.90;99.90;;;;;;5035351;28;39012;-79
2023/04/27 02:30:08;;;;;;;18.53;10.53;;;1.80;99.90;;;;;;5035395;28;37796;-78
2023/04/27 02:32:34;;;;;;;17.83;11.47;;;1.90;99.90;;;;;;5026255;28;37127;-77
2023/04/27 02:35:01;;;;;;;19.80;11.30;;;1.90;99.90;;;;;;5029122;28;37594;-77
2023/04/27 02:37:28;;;;;;;17.83;11.00;;;1.80;99.90;;;;;;5033954;28;39393;-78
2023/04/27 02:39:54;;;;;;;18.27;11.03;;;1.80;99.90;;;;;;5032753;28;39351;-78
2023/04/27 02:42:21;;;;;;;15.23;10.17;;;1.80;99.90;;;;;;5034400;28;38008;-78
2023/04/27 02:44:47;;;;;;;14.47;9.67;;;1.70;99.90;;;;;;5045589;28;37642;-77
2023/04/27 02:47:13;;;;;;;15.57;9.30;;;1.70;99.90;;;;;;5030454;28;38262;-78
2023/04/27 02:49:39;;;;;;;12.73;8.67;;;1.70;99.90;;;;;;5033996;28;36925;-77
2023/04/27 02:52:06;;;;;;;12.00;8.83;;;1.70;99.90;;;;;;5033286;28;37303;-77
2023/04/27 02:54:33;;;;;;;17.00;9.80;;;1.70;99.90;;;;;;5031668;28;41119;-77
2023/04/27 02:56:59;;;;;;;15.57;9.73;;;1.70;99.90;;;;;;5033321;28;38775;-77
2023/04/27 02:59:26;;;;;;;15.70;10.60;;;1.60;99.90;;;;;;5025948;28;37577;-78
2023/04/27 03:01:52;;;;;;;16.43;9.73;;;1.60;99.90;;;;;;5030567;28;37621;-77
2023/04/27 03:04:18;;;;;;;13.87;9.27;;;1.60;99.90;;;;;;5028924;28;38680;-78
2023/04/27 03:06:45;;;;;;;16.07;9.70;;;1.50;99.90;;;;;;5027597;28;37297;-77
2023/04/27 03:09:11;;;;;;;16.67;10.27;;;1.50;99.90;;;;;;5020980;28;38036;-78
2023/04/27 03:11:38;;;;;;;16.70;9.43;;;1.60;99.90;;;;;;5027740;28;38194;-78
2023/04/27 03:14:05;;;;;;;14.87;9.90;;;1.50;99.90;;;;;;5030359;28;37927;-77
2023/04/27 03:16:33;;;;;;;16.23;10.47;;;1.50;99.90;;;;;;5029226;28;37493;-78
2023/04/27 03:18:59;;;;;;;17.97;10.40;;;1.50;99.90;;;;;;5029761;28;38837;-78
2023/04/27 03:21:25;;;;;;;16.07;9.67;;;1.50;99.90;;;;;;5036524;28;37241;-78
2023/04/27 03:23:52;;;;;;;18.60;10.33;;;1.50;99.90;;;;;;5033935;28;38843;-79
2023/04/27 03:26:19;;;;;;;21.47;10.97;;;1.50;99.90;;;;;;5029637;28;36074;-78
2023/04/27 03:28:45;;;;;;;15.67;10.20;;;1.50;99.90;;;;;;5032056;28;35540;-78
2023/04/27 03:31:13;;;;;;;17.17;10.07;;;1.50;99.90;;;;;;5030620;28;37328;-78
2023/04/27 03:33:39;;;;;;;20.10;10.27;;;1.50;99.90;;;;;;5027515;28;38225;-77
2023/04/27 03:36:06;;;;;;;15.80;9.77;;;1.50;99.90;;;;;;5023375;28;38510;-77
2023/04/27 03:38:33;;;;;;;18.07;10.53;;;1.50;99.90;;;;;;5029890;28;37586;-77
2023/04/27 03:40:59;;;;;;;17.97;9.50;;;1.50;99.90;;;;;;5022167;28;37160;-78
2023/04/27 03:43:26;;;;;;;22.43;11.87;;;1.40;99.90;;;;;;5028157;28;37597;-78
2023/04/27 03:45:52;;;;;;;15.87;10.47;;;1.40;99.90;;;;;;5022670;28;37308;-78
2023/04/27 03:48:19;;;;;;;19.83;11.07;;;1.40;99.90;;;;;;5022351;28;37144;-77
2023/04/27 03:50:45;;;;;;;16.43;10.90;;;1.40;99.90;;;;;;5028604;28;37188;-77
2023/04/27 03:53:12;;;;;;;19.43;10.60;;;1.40;99.90;;;;;;5025731;28;37884;-77
2023/04/27 03:55:39;;;;;;;16.47;10.17;;;1.40;99.90;;;;;;5027563;28;37875;-77
2023/04/27 03:58:06;;;;;;;17.13;10.73;;;1.30;99.90;;;;;;5023868;28;38374;-77
2023/04/27 04:00:36;;;;;;;19.33;10.70;;;1.30;99.90;;;;;;5027472;28;37384;-77
2023/04/27 04:03:03;;;;;;;20.57;11.20;;;1.30;99.90;;;;;;5023435;28;38569;-78
2023/04/27 04:05:32;;;;;;;17.63;10.97;;;1.20;99.90;;;;;;5025763;28;37015;-77
2023/04/27 04:07:59;;;;;;;21.23;10.33;;;1.20;99.90;;;;;;5024869;28;20050;-77
2023/04/27 04:10:25;;;;;;;22.77;10.67;;;1.20;99.90;;;;;;5023093;28;37420;-78
2023/04/27 04:12:52;;;;;;;14.70;9.83;;;1.30;99.90;;;;;;5024049;28;40055;-77
2023/04/27 04:15:19;;;;;;;16.80;10.13;;;1.30;99.90;;;;;;5022505;28;37586;-77
2023/04/27 04:17:46;;;;;;;16.20;10.53;;;1.30;99.90;;;;;;5024365;28;37306;-77
2023/04/27 04:20:12;;;;;;;14.77;10.00;;;1.30;99.90;;;;;;5036770;28;36088;-77
2023/04/27 04:22:39;;;;;;;17.13;10.57;;;1.30;99.90;;;;;;5010817;28;37399;-77
2023/04/27 04:25:05;;;;;;;15.07;10.43;;;1.30;99.90;;;;;;5020098;28;37371;-77
2023/04/27 04:27:32;;;;;;;18.23;11.10;;;1.20;99.90;;;;;;5021902;28;36586;-78
2023/04/27 04:29:59;;;;;;;16.60;10.40;;;1.30;99.90;;;;;;5028915;28;36324;-77
2023/04/27 04:32:28;;;;;;;19.23;10.97;;;1.20;99.90;;;;;;5022514;28;39823;-76
2023/04/27 04:34:54;;;;;;;20.13;11.43;;;1.20;99.90;;;;;;5032149;28;38418;-77
2023/04/27 04:37:20;;;;;;;17.33;10.13;;;1.30;99.90;;;;;;5025806;28;38205;-77
2023/04/27 04:39:46;;;;;;;16.93;10.73;;;1.30;99.90;;;;;;5025622;28;36406;-77
2023/04/27 04:42:13;;;;;;;17.90;10.90;;;1.40;99.90;;;;;;5021978;28;37625;-77
2023/04/27 04:44:39;;;;;;;16.13;10.10;;;1.40;99.90;;;;;;5016481;28;38066;-78
2023/04/27 04:47:05;;;;;;;22.77;11.63;;;1.40;99.90;;;;;;5020258;28;38525;-77
2023/04/27 04:49:31;;;;;;;19.73;11.07;;;1.40;99.90;;;;;;5021618;28;38111;-77
2023/04/27 04:51:57;;;;;;;18.63;11.30;;;1.40;99.90;;;;;;5033689;28;37844;-78
2023/04/27 04:54:26;;;;;;;15.43;10.40;;;1.40;99.90;;;;;;5017482;28;39239;-77
2023/04/27 04:56:52;;;;;;;19.63;11.67;;;1.50;99.90;;;;;;5014552;28;35941;-77
2023/04/27 04:59:18;;;;;;;15.77;10.27;;;1.50;99.90;;;;;;5015957;28;37514;-77
2023/04/27 05:01:44;;;;;;;15.73;9.63;;;1.50;99.90;;;;;;5023648;28;37935;-77
2023/04/27 05:04:10;;;;;;;18.17;10.57;;;1.50;99.90;;;;;;5022265;28;37770;-76
2023/04/27 05:06:37;;;;;;;17.57;11.07;;;1.50;99.90;;;;;;5019855;28;37118;-78
2023/04/27 05:09:05;;;;;;;21.00;10.90;;;1.60;99.90;;;;;;5023299;28;36260;-78
2023/04/27 05:11:31;;;;;;;17.17;11.13;;;1.60;99.90;;;;;;5024023;28;39497;-77
2023/04/27 05:13:57;;;;;;;16.33;10.90;;;1.60;99.90;;;;;;5024625;28;38261;-77
2023/04/27 05:16:25;;;;;;;19.23;11.60;;;1.60;99.90;;;;;;5020642;28;37647;-77
2023/04/27 05:18:53;;;;;;;17.87;10.97;;;1.70;99.90;;;;;;5024168;28;37208;-78
2023/04/27 05:21:20;;;;;;;19.63;12.07;;;1.80;99.90;;;;;;5024025;28;38146;-78
2023/04/27 05:23:47;;;;;;;19.10;11.67;;;1.90;99.90;;;;;;5018827;28;37727;-76
2023/04/27 05:26:17;;;;;;;22.33;12.03;;;1.80;99.90;;;;;;5022773;28;37033;-78
2023/04/27 05:28:43;;;;;;;19.47;11.43;;;1.90;99.90;;;;;;5023679;28;36440;-77
2023/04/27 05:31:09;;;;;;;19.30;12.13;;;1.90;99.90;;;;;;5021187;28;39185;-76
2023/04/27 05:33:35;;;;;;;20.00;11.67;;;2.00;99.90;;;;;;5026756;28;38941;-76
2023/04/27 05:36:02;;;;;;;26.60;13.77;;;2.00;99.90;;;;;;5026559;28;38561;-77
2023/04/27 05:38:28;;;;;;;25.20;13.60;;;2.00;99.90;;;;;;5026569;28;48878;-77
2023/04/27 05:40:58;;;;;;;20.27;13.83;;;2.10;99.90;;;;;;5023994;28;38411;-77
2023/04/27 05:43:25;;;;;;;23.23;13.53;;;2.20;99.90;;;;;;5025180;28;38519;-77
2023/04/27 05:45:52;;;;;;;18.70;11.57;;;2.30;99.90;;;;;;5029097;28;37938;-77
2023/04/27 05:48:19;;;;;;;19.87;13.13;;;2.40;99.90;;;;;;5026660;28;37689;-78
2023/04/27 05:50:45;;;;;;;23.27;12.70;;;2.60;99.90;;;;;;5025383;28;39557;-77
2023/04/27 05:53:11;;;;;;;23.33;12.37;;;2.70;99.90;;;;;;5025124;28;37719;-77
2023/04/27 05:55:38;;;;;;;15.23;11.03;;;2.90;99.90;;;;;;5020871;28;38334;-78
2023/04/27 05:58:04;;;;;;;23.93;11.03;;;3.10;99.90;;;;;;5025702;28;37570;-75
2023/04/27 06:00:38;;;;;;;17.97;10.93;;;3.30;99.90;;;;;;5023288;28;38866;-78
2023/04/27 06:03:04;;;;;;;17.53;10.87;;;3.70;99.90;;;;;;5022537;28;39003;-77
2023/04/27 06:05:30;;;;;;;19.93;10.57;;;3.90;99.90;;;;;;5028426;28;38365;-77
2023/04/27 06:07:56;;;;;;;15.30;10.60;;;4.20;99.90;;;;;;5039686;28;36385;-76
2023/04/27 06:10:24;;;;;;;16.10;10.30;;;4.40;99.90;;;;;;5020184;28;37577;-76
2023/04/27 06:12:50;;;;;;;17.27;10.33;;;4.60;99.90;;;;;;5023253;28;38458;-76
2023/04/27 06:15:16;;;;;;;16.17;9.47;;;4.80;99.90;;;;;;5024531;28;37098;-76
2023/04/27 06:17:42;;;;;;;15.50;9.77;;;4.90;99.90;;;;;;5026988;28;36729;-75
2023/04/27 06:20:09;;;;;;;18.60;9.83;;;5.00;99.90;;;;;;5027028;28;38572;-75
2023/04/27 06:22:38;;;;;;;18.80;9.43;;;5.20;99.90;;;;;;5034311;28;37686;-75
2023/04/27 06:25:05;;;;;;;14.07;8.97;;;5.30;99.90;;;;;;5021192;28;37235;-75
2023/04/27 06:27:32;;;;;;;14.83;8.70;;;5.40;99.90;;;;;;5026265;28;36396;-75
2023/04/27 06:29:58;;;;;;;14.13;9.20;;;5.50;99.90;;;;;;5028770;28;37756;-75
2023/04/27 06:32:24;;;;;;;16.17;8.87;;;5.60;99.90;;;;;;5028047;28;38836;-75
2023/04/27 06:34:50;;;;;;;12.83;8.57;;;5.70;99.90;;;;;;5029463;28;37768;-74
2023/04/27 06:37:16;;;;;;;14.07;8.37;;;5.80;99.90;;;;;;5026748;28;36191;-74
2023/04/27 06:39:43;;;;;;;17.90;8.73;;;5.90;99.90;;;;;;5029778;28;39898;-75
2023/04/27 06:42:10;;;;;;;11.03;7.90;;;6.10;99.90;;;;;;5023774;28;38604;-74
2023/04/27 06:44:36;;;;;;;12.80;7.67;;;6.20;99.90;;;;;;5024166;28;37268;-74
2023/04/27 06:47:05;;;;;;;17.13;8.20;;;6.20;99.90;;;;;;5023010;28;37094;-75
2023/04/27 06:49:37;;;;;;;12.37;7.33;;;6.30;99.90;;;;;;5022232;28;39610;-75
2023/04/27 06:52:04;;;;;;;12.05;7.78;;;6.40;99.90;;;;;;5029974;28;36846;-75
2023/04/27 06:54:30;;;;;;;12.43;7.10;;;6.50;99.90;;;;;;5025727;28;38785;-76
2023/04/27 06:56:56;;;;;;;13.00;7.67;;;6.60;99.90;;;;;;5021907;28;38166;-76
2023/04/27 06:59:22;;;;;;;12.60;7.40;;;6.80;99.90;;;;;;5027553;28;40019;-76
2023/04/27 07:01:55;;;;;;;14.13;6.77;;;6.80;99.90;;;;;;5025586;28;39246;-78
2023/04/27 07:04:27;;;;;;;12.93;7.65;;;7.00;99.90;;;;;;5022643;28;37135;-77
2023/04/27 07:06:57;;;;;;;12.32;6.90;;;7.20;99.90;;;;;;5017694;28;38686;-76
2023/04/27 07:09:27;;;;;;;10.33;6.93;;;7.30;99.90;;;;;;5007310;28;37623;-77
2023/04/27 07:11:54;;;;;;;11.80;6.50;;;7.40;99.90;;;;;;5022154;28;39099;-77
2023/04/27 07:14:26;;;;;;;12.33;6.83;;;7.80;99.90;;;;;;5002571;28;38329;-79
2023/04/27 07:16:52;;;;;;;15.98;6.72;;;8.00;99.90;;;;;;5038832;28;36614;-78
2023/04/27 07:19:18;;;;;;;10.43;5.47;;;8.30;99.90;;;;;;5010298;28;38422;-81
2023/04/27 07:21:48;;;;;;;9.70;5.20;;;8.30;99.90;;;;;;5027873;28;37321;-80
2023/04/27 07:24:17;;;;;;;9.43;5.83;;;8.60;99.90;;;;;;5015128;28;36840;-80
2023/04/27 07:27:01;;;;;;;11.97;5.90;;;8.80;99.90;;;;;;5035839;28;39007;-79
2023/04/27 07:29:28;;;;;;;8.70;5.50;;;8.90;99.90;;;;;;5032917;28;37547;-80
2023/04/27 07:32:03;;;;;;;7.67;4.93;;;9.20;99.90;;;;;;5026725;28;38507;-79
2023/04/27 07:34:35;;;;;;;9.27;5.13;;;9.10;99.90;;;;;;5018250;28;47902;-79
2023/04/27 07:37:02;;;;;;;8.85;4.78;;;9.20;99.90;;;;;;5020301;28;36439;-77
2023/04/27 07:39:35;;;;;;;11.97;4.60;;;9.20;99.90;;;;;;5021058;28;38893;-80
2023/04/27 07:42:02;;;;;;;7.60;4.50;;;9.30;99.90;;;;;;5017908;28;37977;-81
2023/04/27 07:44:30;;;;;;;7.40;4.23;;;9.50;99.90;;;;;;5049719;28;47377;-81
2023/04/27 07:46:57;;;;;;;5.87;3.73;;;9.50;99.90;;;;;;5029191;28;37092;-81
2023/04/27 07:49:27;;;;;;;9.87;4.20;;;9.60;99.90;;;;;;5051520;28;38495;-81
2023/04/27 07:51:53;;;;;;;11.33;4.10;;;9.40;99.90;;;;;;5039234;28;36468;-80
2023/04/27 07:54:19;;;;;;;7.73;3.97;;;9.30;99.90;;;;;;5042408;28;37743;-81
2023/04/27 07:56:45;;;;;;;10.20;3.95;;;9.50;99.90;;;;;;5037337;28;36057;-80
2023/04/27 07:59:14;;;;;;;6.30;3.70;;;9.70;99.90;;;;;;5025945;28;39493;-80
2023/04/27 08:01:40;;;;;;;6.88;4.05;;;9.70;99.90;;;;;;5024423;28;37941;-80
2023/04/27 08:04:06;;;;;;;6.13;4.13;;;9.70;99.90;;;;;;5019294;28;38244;-78
2023/04/27 08:06:33;;;;;;;7.63;4.07;;;9.70;99.90;;;;;;5031451;28;36929;-76
2023/04/27 08:09:00;;;;;;;8.63;4.63;;;9.70;99.90;;;;;;5030157;28;39264;-78
2023/04/27 08:11:26;;;;;;;7.32;4.50;;;9.80;99.90;;;;;;5016043;28;47958;-78
2023/04/27 08:13:52;;;;;;;11.07;4.57;;;10.10;99.90;;;;;;5024638;28;37970;-78
2023/04/27 08:16:19;;;;;;;5.57;3.35;;;10.20;99.90;;;;;;5038445;28;36823;-78
2023/04/27 08:18:45;;;;;;;10.38;4.22;;;10.10;99.90;;;;;;5024515;28;36724;-77
2023/04/27 08:21:11;;;;;;;7.07;3.88;;;10.10;99.90;;;;;;5030209;28;37169;-79
2023/04/27 08:23:37;;;;;;;10.32;4.25;;;10.10;99.90;;;;;;5034449;28;37021;-77
2023/04/27 08:26:04;;;;;;;7.03;3.67;;;9.90;99.90;;;;;;5025617;28;35943;-79
2023/04/27 08:28:30;;;;;;;7.32;3.80;;;10.00;99.90;;;;;;5023009;28;38100;-78
2023/04/27 08:30:56;;;;;;;10.13;3.80;;;10.10;99.90;;;;;;5019444;28;39075;-75
2023/04/27 08:33:22;;;;;;;7.20;3.80;;;10.20;99.90;;;;;;5018320;28;38140;-79
2023/04/27 08:35:48;;;;;;;6.47;4.10;;;10.50;99.90;;;;;;5022728;28;36032;-76
2023/04/27 08:38:14;;;;;;;7.97;4.07;;;10.60;99.90;;;;;;5020623;28;37400;-76
2023/04/27 08:40:42;;;;;;;8.23;3.85;;;10.80;99.90;;;;;;5037712;28;37843;-80
2023/04/27 08:43:08;;;;;;;10.80;4.13;;;10.90;99.90;;;;;;5035785;28;37128;-80
2023/04/27 08:45:34;;;;;;;5.43;3.42;;;11.10;99.90;;;;;;5032451;28;36951;-80
2023/04/27 08:48:00;;;;;;;6.43;3.83;;;11.30;99.90;;;;;;5035200;28;39138;-79
2023/04/27 08:50:27;;;;;;;6.45;3.70;;;11.00;99.90;;;;;;5037969;28;47422;-80
2023/04/27 08:52:54;;;;;;;8.48;3.90;;;11.30;99.90;;;;;;5041013;28;37839;-79
2023/04/27 08:55:20;;;;;;;6.25;3.55;;;11.50;99.90;;;;;;5052080;28;37617;-80
2023/04/27 08:57:56;;;;;;;8.65;3.60;;;11.80;99.90;;;;;;5037939;28;37446;-79
2023/04/27 09:00:26;;;;;;;6.57;3.13;;;11.70;99.90;;;;;;5042684;28;37512;-79
2023/04/27 09:02:52;;;;;;;6.43;3.47;;;11.70;99.90;;;;;;5042046;28;38508;-81
2023/04/27 09:05:21;;;;;;;8.00;3.33;;;11.30;99.90;;;;;;5029754;28;38732;-78
2023/04/27 09:08:04;;;;;;;5.97;3.33;;;11.30;99.90;;;;;;5024730;28;38637;-75
2023/04/27 09:10:42;;;;;;;5.97;3.28;;;11.30;99.90;;;;;;5033538;28;47163;-76
2023/04/27 09:13:08;;;;;;;9.40;4.00;;;11.50;99.90;;;;;;5024506;28;37064;-77
2023/04/27 09:15:51;;;;;;;8.60;3.67;;;11.60;99.90;;;;;;5022842;28;37794;-77
2023/04/27 09:18:21;;;;;;;;;;;11.60;99.90;;;;;;5023405;28;38670;-76
2023/04/27 09:20:51;;;;;;;6.00;4.07;;;12.10;99.90;;;;;;5025058;28;38845;-77
2023/04/27 09:23:31;;;;;;;5.25;3.70;;;12.20;99.90;;;;;;5025438;28;36904;-76
2023/04/27 09:26:08;;;;;;;5.28;3.50;;;12.10;99.90;;;;;;5017034;28;38655;-76
2023/04/27 09:28:39;;;;;;;5.68;4.25;;;11.70;99.90;;;;;;5024297;28;48665;-76
2023/04/27 09:31:07;;;;;;;7.85;4.40;;;11.80;99.90;;;;;;5012601;28;38286;-75
2023/04/27 09:33:35;;;;;;;6.35;3.97;;;11.80;99.90;;;;;;5026204;28;38040;-76
2023/04/27 09:36:04;;;;;;;9.30;3.83;;;11.60;99.90;;;;;;5029246;28;36688;-78
2023/04/27 09:38:30;;;;;;;6.32;3.72;;;11.90;99.90;;;;;;5020467;28;47279;-77
2023/04/27 09:40:58;;;;;;;5.88;3.33;;;11.80;99.90;;;;;;5023505;28;37290;-77
2023/04/27 09:43:28;;;;;;;7.30;4.78;;;12.30;99.90;;;;;;5019340;28;37555;-77
2023/04/27 09:45:55;;;;;;;7.80;4.25;;;12.40;99.90;;;;;;5016340;28;37078;-76
2023/04/27 09:48:23;;;;;;;7.47;3.90;;;12.40;99.90;;;;;;5016406;28;38336;-81
2023/04/27 09:50:51;;;;;;;8.18;4.28;;;12.30;99.90;;;;;;5017306;28;37464;-81
2023/04/27 09:53:28;;;;;;;5.95;4.18;;;13.00;99.90;;;;;;5023306;28;37962;-83
2023/04/27 09:56:13;;;;;;;6.65;3.95;;;13.00;99.90;;;;;;5025037;28;36338;-83
2023/04/27 09:58:48;;;;;;;5.88;3.80;;;12.90;99.90;;;;;;5023468;28;47047;-83
2023/04/27 10:01:20;;;;;;;8.00;4.18;;;13.00;99.90;;;;;;5021007;28;39002;-83
2023/04/27 10:04:02;;;;;;;5.50;3.30;;;12.70;99.90;;;;;;5019040;28;37195;-79
2023/04/27 10:06:51;;;;;;;7.35;4.07;;;13.20;99.90;;;;;;5030867;28;47074;-83
2023/04/27 10:09:24;;;;;;;6.90;4.45;;;13.70;99.90;;;;;;5021610;28;36236;-84
2023/04/27 10:11:51;;;;;;;;;;;13.20;99.90;;;;;;5018539;28;37411;-82
2023/04/27 10:14:20;;;;;;;11.68;4.30;;;12.70;99.90;;;;;;5020728;28;39029;-82
2023/04/27 10:16:51;;;;;;;5.95;3.53;;;12.90;99.90;;;;;;5017010;28;35777;-84
2023/04/27 10:19:17;;;;;;;7.72;4.00;;;13.20;99.90;;;;;;5037195;28;37683;-84
2023/04/27 10:22:02;;;;;;;6.63;3.88;;;13.60;99.90;;;;;;5018382;28;37527;-83
2023/04/27 10:24:35;;;;;;;8.85;4.05;;;13.40;99.90;;;;;;5010697;28;47613;-84
2023/04/27 10:27:07;;;;;;;6.50;4.15;;;13.70;99.90;;;;;;5020799;28;38225;-85
2023/04/27 10:29:41;;;;;;;5.95;4.30;;;13.50;99.90;;;;;;5010611;28;47815;-85
2023/04/27 10:32:10;;;;;;;7.55;4.22;;;13.80;99.90;;;;;;5012393;28;37315;-84
2023/04/27 10:34:37;;;;;;;7.80;4.25;;;14.00;99.90;;;;;;5020573;28;36801;-85
2023/04/27 10:37:05;;;;;;;6.85;4.20;;;14.10;99.90;;;;;;5020820;28;38252;-87
2023/04/27 10:39:37;;;;;;;9.73;4.07;;;14.20;99.90;;;;;;5021899;28;37806;-85
2023/04/27 10:42:05;;;;;;;8.43;4.55;;;13.80;99.90;;;;;;5019462;28;37829;-82
2023/04/27 10:44:32;;;;;;;6.80;4.15;;;13.50;99.90;;;;;;5009588;28;38746;-82
2023/04/27 10:47:14;;;;;;;6.75;4.35;;;13.60;99.90;;;;;;5013660;28;38024;-84
2023/04/27 10:49:41;;;;;;;7.68;4.45;;;14.30;99.90;;;;;;5024002;28;47272;-85
2023/04/27 10:52:07;;;;;;;6.22;4.72;;;14.10;99.90;;;;;;5019501;28;38249;-84
2023/04/27 10:54:35;;;;;;;8.95;4.70;;;13.90;99.90;;;;;;5017615;28;36875;-85
2023/04/27 10:57:11;;;;;;;8.95;4.63;;;14.30;99.90;;;;;;5015907;28;37519;-83
2023/04/27 10:59:51;;;;;;;9.13;4.28;;;14.90;99.90;;;;;;5021412;28;47393;-87
2023/04/27 11:02:25;;;;;;;8.65;3.72;;;14.90;99.90;;;;;;5017363;28;38593;-83
2023/04/27 11:04:51;;;;;;;6.68;4.40;;;15.30;99.90;;;;;;5020261;28;37421;-83
2023/04/27 11:07:25;;;;;;;8.10;4.43;;;15.50;99.90;;;;;;5009449;28;36220;-86
2023/04/27 11:09:51;;;;;;;8.18;4.03;;;15.50;99.90;;;;;;5021017;28;37873;-86
2023/04/27 11:12:17;;;;;;;5.90;4.18;;;15.50;99.90;;;;;;5011077;28;40034;-85
2023/04/27 11:14:43;;;;;;;8.48;4.47;;;15.30;99.90;;;;;;5018925;28;37155;-85
2023/04/27 11:17:12;;;;;;;9.43;4.05;;;15.60;99.90;;;;;;5021844;28;37951;-84
2023/04/27 11:19:46;;;;;;;6.75;4.20;;;15.40;99.90;;;;;;5024692;28;39165;-85
2023/04/27 11:22:16;;;;;;;5.63;4.18;;;14.80;99.90;;;;;;5025068;28;38451;-84
2023/04/27 11:24:50;;;;;;;6.40;3.88;;;15.00;99.90;;;;;;5033488;28;37187;-85
2023/04/27 11:27:17;;;;;;;4.60;3.13;;;15.50;99.90;;;;;;5032702;28;35882;-84
2023/04/27 11:29:43;;;;;;;5.38;3.80;;;15.40;99.90;;;;;;5035985;28;37039;-84
2023/04/27 11:32:22;;;;;;;6.90;3.38;;;15.50;99.90;;;;;;5043990;28;38517;-84
2023/04/27 11:34:49;;;;;;;3.75;3.05;;;15.30;99.90;;;;;;5022506;28;36832;-85
2023/04/27 11:37:25;;;;;;;9.68;4.20;;;15.70;99.90;;;;;;5012507;28;38538;-85
2023/04/27 11:39:56;;;;;;;6.57;3.88;;;15.50;99.90;;;;;;5017426;28;38511;-84
2023/04/27 11:42:24;;;;;;;6.82;4.00;;;15.60;99.90;;;;;;5022540;28;39149;-84
2023/04/27 11:44:58;;;;;;;7.18;3.53;;;15.50;99.90;;;;;;5016783;28;37186;-78
2023/04/27 11:47:27;;;;;;;7.60;4.55;;;16.10;99.90;;;;;;5014808;28;36829;-84
2023/04/27 11:49:59;;;;;;;5.43;3.70;;;16.30;99.90;;;;;;5040088;28;38036;-85
2023/04/27 11:52:29;;;;;;;6.78;3.83;;;15.90;99.90;;;;;;5017946;28;38256;-84
2023/04/27 11:54:55;;;;;;;5.70;3.83;;;15.70;99.90;;;;;;5032578;28;38462;-76
2023/04/27 11:57:25;;;;;;;7.10;3.95;;;15.70;99.90;;;;;;5008091;28;37205;-73
2023/04/27 11:59:52;;;;;;;4.55;3.45;;;15.80;99.90;;;;;;5014632;28;38456;-83
2023/04/27 12:02:22;;;;;;;7.13;4.10;;;15.70;99.90;;;;;;5021033;28;38535;-82
2023/04/27 12:04:49;;;;;;;8.70;3.88;;;15.70;99.90;;;;;;5022119;28;37998;-81
2023/04/27 12:07:16;;;;;;;6.68;4.15;;;16.20;99.90;;;;;;5037533;28;37974;-83
2023/04/27 12:09:42;;;;;;;7.80;4.07;;;15.80;99.90;;;;;;5032527;28;39579;-84
2023/04/27 12:12:09;;;;;;;5.15;4.05;;;15.80;99.90;;;;;;5025935;28;38469;-82
2023/04/27 12:14:35;;;;;;;6.35;4.30;;;15.80;99.90;;;;;;5024775;28;37006;-82
2023/04/27 12:17:02;;;;;;;7.78;5.15;;;15.90;99.90;;;;;;5025342;28;36864;-83
2023/04/27 12:19:29;;;;;;;7.60;4.40;;;16.10;99.90;;;;;;5027250;28;48837;-82
2023/04/27 12:21:56;;;;;;;6.95;4.22;;;16.30;99.90;;;;;;5026177;28;38202;-82
2023/04/27 12:24:22;;;;;;;10.02;4.13;;;16.40;99.90;;;;;;5026656;28;38836;-81
2023/04/27 12:26:48;;;;;;;7.18;4.30;;;16.40;99.90;;;;;;5029127;28;37200;-82
2023/04/27 12:29:15;;;;;;;8.52;4.70;;;16.50;99.90;;;;;;5023988;28;37768;-82
2023/04/27 12:31:41;;;;;;;6.15;4.50;;;16.00;99.90;;;;;;5020939;28;37293;-81
2023/04/27 12:34:07;;;;;;;7.75;4.95;;;16.20;99.90;;;;;;5024158;28;37770;-82
2023/04/27 12:36:33;;;;;;;7.05;4.45;;;16.40;99.90;;;;;;5022099;28;36592;-82
2023/04/27 12:39:12;;;;;;;5.82;4.32;;;16.80;99.90;;;;;;5026373;28;39100;-82
2023/04/27 12:41:38;;;;;;;7.78;4.43;;;16.90;99.90;;;;;;5031699;28;48609;-81
2023/04/27 12:44:05;;;;;;;6.45;4.55;;;16.60;99.90;;;;;;5025819;28;38881;-81
2023/04/27 12:46:31;;;;;;;6.32;4.75;;;15.90;99.90;;;;;;5023807;28;37166;-83
2023/04/27 12:48:57;;;;;;;8.07;4.70;;;15.60;99.90;;;;;;5024334;28;39850;-82